sensor_id;sensor_type;location;lat;lon;timestamp;P1;durP1;ratioP1;P2;durP2;ratioP2
60054;SDS011;45930;53.514;55.904;2023-02-28T00:00:56;37.70;;;18.00;;
60054;SDS011;45930;53.514;55.904;2023-02-28T00:01:56;40.08;;;17.00;;
60054;SDS011;45930;53.514;55.904;2023-02-28T00:02:57;39.83;;;17.80;;
60054;SDS011;45930;53.514;55.904;2023-02-28T00:03:58;43.03;;;18.67;;
60054;SDS011;45930;53.514;55.904;2023-02-28T00:04:59;42.22;;;19.20;;
60054;SDS011;45930;53.514;55.904;2023-02-28T00:06:04;44.42;;;18.83;;
60054;SDS011;45930;53.514;55.904;2023-02-28T00:07:06;40.67;;;20.02;;
60054;SDS011;45930;53.514;55.904;2023-02-28T00:08:07;36.50;;;17.27;;
60054;SDS011;45930;53.514;55.904;2023-02-28T00:09:08;41.63;;;17.58;;
60054;SDS011;45930;53.514;55.904;2023-02-28T00:10:10;37.13;;;19.15;;
60054;SDS011;45930;53.514;55.904;2023-02-28T00:11:14;38.50;;;17.65;;
60054;SDS011;45930;53.514;55.904;2023-02-28T00:12:15;35.47;;;17.85;;
60054;SDS011;45930;53.514;55.904;2023-02-28T00:13:16;37.33;;;18.85;;
60054;SDS011;45930;53.514;55.904;2023-02-28T00:14:16;35.42;;;17.90;;
60054;SDS011;45930;53.514;55.904;2023-02-28T00:15:17;37.08;;;16.92;;
60054;SDS011;45930;53.514;55.904;2023-02-28T00:16:19;34.83;;;17.10;;
60054;SDS011;45930;53.514;55.904;2023-02-28T00:17:22;31.27;;;16.70;;
60054;SDS011;45930;53.514;55.904;2023-02-28T00:18:22;33.67;;;16.63;;
60054;SDS011;45930;53.514;55.904;2023-02-28T00:19:23;39.13;;;18.27;;
60054;SDS011;45930;53.514;55.904;2023-02-28T00:20:24;36.65;;;16.13;;
60054;SDS011;45930;53.514;55.904;2023-02-28T00:21:25;37.92;;;17.58;;
60054;SDS011;45930;53.514;55.904;2023-02-28T00:22:26;40.25;;;19.00;;
60054;SDS011;45930;53.514;55.904;2023-02-28T00:23:27;29.25;;;15.05;;
60054;SDS011;45930;53.514;55.904;2023-02-28T00:24:28;30.77;;;15.90;;
60054;SDS011;45930;53.514;55.904;2023-02-28T00:25:29;29.08;;;15.77;;
60054;SDS011;45930;53.514;55.904;2023-02-28T00:26:30;34.88;;;16.95;;
60054;SDS011;45930;53.514;55.904;2023-02-28T00:27:30;29.85;;;16.13;;
60054;SDS011;45930;53.514;55.904;2023-02-28T00:28:31;31.17;;;16.30;;
60054;SDS011;45930;53.514;55.904;2023-02-28T00:29:32;28.30;;;14.60;;
60054;SDS011;45930;53.514;55.904;2023-02-28T00:30:32;29.52;;;15.35;;
60054;SDS011;45930;53.514;55.904;2023-02-28T00:31:33;28.85;;;14.38;;
60054;SDS011;45930;53.514;55.904;2023-02-28T00:32:34;28.58;;;14.38;;
60054;SDS011;45930;53.514;55.904;2023-02-28T00:33:36;27.88;;;15.05;;
60054;SDS011;45930;53.514;55.904;2023-02-28T00:34:36;33.72;;;15.20;;
60054;SDS011;45930;53.514;55.904;2023-02-28T00:35:37;34.30;;;14.45;;
60054;SDS011;45930;53.514;55.904;2023-02-28T00:36:38;26.55;;;14.27;;
60054;SDS011;45930;53.514;55.904;2023-02-28T00:37:41;30.15;;;15.00;;
60054;SDS011;45930;53.514;55.904;2023-02-28T00:38:42;28.42;;;14.63;;
60054;SDS011;45930;53.514;55.904;2023-02-28T00:39:43;29.73;;;14.73;;
60054;SDS011;45930;53.514;55.904;2023-02-28T00:40:43;31.02;;;14.23;;
60054;SDS011;45930;53.514;55.904;2023-02-28T00:41:44;27.17;;;13.70;;
60054;SDS011;45930;53.514;55.904;2023-02-28T00:42:45;27.70;;;13.88;;
60054;SDS011;45930;53.514;55.904;2023-02-28T00:43:46;31.02;;;14.02;;
60054;SDS011;45930;53.514;55.904;2023-02-28T00:44:47;28.52;;;15.32;;
60054;SDS011;45930;53.514;55.904;2023-02-28T00:45:48;31.33;;;14.95;;
60054;SDS011;45930;53.514;55.904;2023-02-28T00:46:48;27.35;;;13.30;;
60054;SDS011;45930;53.514;55.904;2023-02-28T00:47:49;26.63;;;13.93;;
60054;SDS011;45930;53.514;55.904;2023-02-28T00:48:50;28.45;;;14.27;;
60054;SDS011;45930;53.514;55.904;2023-02-28T00:49:51;28.00;;;14.30;;
60054;SDS011;45930;53.514;55.904;2023-02-28T00:50:51;26.27;;;13.75;;
60054;SDS011;45930;53.514;55.904;2023-02-28T00:51:53;28.20;;;14.73;;
60054;SDS011;45930;53.514;55.904;2023-02-28T00:52:54;28.92;;;14.15;;
60054;SDS011;45930;53.514;55.904;2023-02-28T00:53:55;27.17;;;14.45;;
60054;SDS011;45930;53.514;55.904;2023-02-28T00:54:56;29.15;;;14.32;;
60054;SDS011;45930;53.514;55.904;2023-02-28T00:55:57;29.30;;;13.85;;
60054;SDS011;45930;53.514;55.904;2023-02-28T00:56:58;29.60;;;15.70;;
60054;SDS011;45930;53.514;55.904;2023-02-28T00:58:00;29.58;;;15.27;;
60054;SDS011;45930;53.514;55.904;2023-02-28T00:59:00;34.50;;;16.50;;
60054;SDS011;45930;53.514;55.904;2023-02-28T01:00:01;37.38;;;16.65;;
60054;SDS011;45930;53.514;55.904;2023-02-28T01:01:03;33.88;;;16.73;;
60054;SDS011;45930;53.514;55.904;2023-02-28T01:02:04;34.38;;;15.85;;
60054;SDS011;45930;53.514;55.904;2023-02-28T01:03:05;36.13;;;17.70;;
60054;SDS011;45930;53.514;55.904;2023-02-28T01:04:06;30.63;;;15.40;;
60054;SDS011;45930;53.514;55.904;2023-02-28T01:05:07;29.42;;;15.48;;
60054;SDS011;45930;53.514;55.904;2023-02-28T01:06:08;32.78;;;15.75;;
60054;SDS011;45930;53.514;55.904;2023-02-28T01:07:09;29.00;;;16.38;;
60054;SDS011;45930;53.514;55.904;2023-02-28T01:08:09;35.65;;;17.48;;
60054;SDS011;45930;53.514;55.904;2023-02-28T01:09:10;33.35;;;16.38;;
60054;SDS011;45930;53.514;55.904;2023-02-28T01:10:12;27.88;;;16.02;;
60054;SDS011;45930;53.514;55.904;2023-02-28T01:11:14;33.05;;;15.55;;
60054;SDS011;45930;53.514;55.904;2023-02-28T01:12:16;30.20;;;15.43;;
60054;SDS011;45930;53.514;55.904;2023-02-28T01:13:17;33.08;;;17.00;;
60054;SDS011;45930;53.514;55.904;2023-02-28T01:14:18;31.23;;;16.23;;
60054;SDS011;45930;53.514;55.904;2023-02-28T01:15:19;30.70;;;16.38;;
60054;SDS011;45930;53.514;55.904;2023-02-28T01:16:20;30.13;;;15.25;;
60054;SDS011;45930;53.514;55.904;2023-02-28T01:17:21;31.30;;;16.08;;
60054;SDS011;45930;53.514;55.904;2023-02-28T01:18:22;33.80;;;16.13;;
60054;SDS011;45930;53.514;55.904;2023-02-28T01:19:24;34.33;;;16.33;;
60054;SDS011;45930;53.514;55.904;2023-02-28T01:20:25;33.80;;;16.52;;
60054;SDS011;45930;53.514;55.904;2023-02-28T01:21:26;31.35;;;17.17;;
60054;SDS011;45930;53.514;55.904;2023-02-28T01:22:27;31.83;;;16.75;;
60054;SDS011;45930;53.514;55.904;2023-02-28T01:23:28;30.23;;;16.10;;
60054;SDS011;45930;53.514;55.904;2023-02-28T01:24:29;29.85;;;16.98;;
60054;SDS011;45930;53.514;55.904;2023-02-28T01:25:30;34.15;;;17.15;;
60054;SDS011;45930;53.514;55.904;2023-02-28T01:26:34;33.30;;;17.17;;
60054;SDS011;45930;53.514;55.904;2023-02-28T01:27:34;34.97;;;18.08;;
60054;SDS011;45930;53.514;55.904;2023-02-28T01:28:36;36.63;;;16.92;;
60054;SDS011;45930;53.514;55.904;2023-02-28T01:29:37;30.08;;;16.42;;
60054;SDS011;45930;53.514;55.904;2023-02-28T01:30:38;28.67;;;15.65;;
60054;SDS011;45930;53.514;55.904;2023-02-28T01:31:39;32.33;;;15.27;;
60054;SDS011;45930;53.514;55.904;2023-02-28T01:32:39;36.58;;;17.77;;
60054;SDS011;45930;53.514;55.904;2023-02-28T01:33:40;32.35;;;16.85;;
60054;SDS011;45930;53.514;55.904;2023-02-28T01:34:42;34.30;;;17.10;;
60054;SDS011;45930;53.514;55.904;2023-02-28T01:35:42;30.17;;;15.68;;
60054;SDS011;45930;53.514;55.904;2023-02-28T01:36:43;31.42;;;17.38;;
60054;SDS011;45930;53.514;55.904;2023-02-28T01:37:44;34.65;;;16.98;;
60054;SDS011;45930;53.514;55.904;2023-02-28T01:38:45;28.90;;;14.77;;
60054;SDS011;45930;53.514;55.904;2023-02-28T01:39:46;33.85;;;17.45;;
60054;SDS011;45930;53.514;55.904;2023-02-28T01:40:47;34.95;;;16.92;;
60054;SDS011;45930;53.514;55.904;2023-02-28T01:41:48;30.52;;;15.65;;
60054;SDS011;45930;53.514;55.904;2023-02-28T01:42:49;31.45;;;16.50;;
60054;SDS011;45930;53.514;55.904;2023-02-28T01:46:29;32.60;;;16.92;;
60054;SDS011;45930;53.514;55.904;2023-02-28T01:47:33;30.23;;;15.43;;
60054;SDS011;45930;53.514;55.904;2023-02-28T01:48:38;35.30;;;16.58;;
60054;SDS011;45930;53.514;55.904;2023-02-28T01:49:45;28.80;;;15.35;;
60054;SDS011;45930;53.514;55.904;2023-02-28T01:50:46;33.88;;;17.77;;
60054;SDS011;45930;53.514;55.904;2023-02-28T01:51:49;28.90;;;17.77;;
60054;SDS011;45930;53.514;55.904;2023-02-28T01:52:55;32.25;;;17.77;;
60054;SDS011;45930;53.514;55.904;2023-02-28T01:54:03;31.02;;;16.83;;
60054;SDS011;45930;53.514;55.904;2023-02-28T01:55:13;32.13;;;17.05;;
60054;SDS011;45930;53.514;55.904;2023-02-28T01:56:17;31.52;;;16.83;;
60054;SDS011;45930;53.514;55.904;2023-02-28T01:57:24;30.77;;;17.38;;
60054;SDS011;45930;53.514;55.904;2023-02-28T01:58:30;30.77;;;16.05;;
60054;SDS011;45930;53.514;55.904;2023-02-28T01:59:41;30.70;;;15.75;;
60054;SDS011;45930;53.514;55.904;2023-02-28T02:00:46;30.65;;;17.27;;
60054;SDS011;45930;53.514;55.904;2023-02-28T02:01:48;29.58;;;16.13;;
60054;SDS011;45930;53.514;55.904;2023-02-28T02:02:50;33.35;;;16.65;;
60054;SDS011;45930;53.514;55.904;2023-02-28T02:03:54;29.35;;;15.40;;
60054;SDS011;45930;53.514;55.904;2023-02-28T02:05:03;34.50;;;15.40;;
60054;SDS011;45930;53.514;55.904;2023-02-28T02:06:05;34.80;;;16.63;;
60054;SDS011;45930;53.514;55.904;2023-02-28T02:07:06;32.95;;;16.58;;
60054;SDS011;45930;53.514;55.904;2023-02-28T02:08:09;29.88;;;15.63;;
60054;SDS011;45930;53.514;55.904;2023-02-28T02:09:12;29.02;;;15.23;;
60054;SDS011;45930;53.514;55.904;2023-02-28T02:11:20;28.00;;;15.70;;
60054;SDS011;45930;53.514;55.904;2023-02-28T02:12:29;28.58;;;16.42;;
60054;SDS011;45930;53.514;55.904;2023-02-28T02:17:52;32.20;;;16.52;;
60054;SDS011;45930;53.514;55.904;2023-02-28T02:32:55;30.73;;;16.10;;
60054;SDS011;45930;53.514;55.904;2023-02-28T02:36:48;35.67;;;16.73;;
60054;SDS011;45930;53.514;55.904;2023-02-28T02:37:54;28.73;;;14.50;;
60054;SDS011;45930;53.514;55.904;2023-02-28T02:39:38;30.15;;;15.30;;
60054;SDS011;45930;53.514;55.904;2023-02-28T02:42:02;30.33;;;14.82;;
60054;SDS011;45930;53.514;55.904;2023-02-28T02:45:34;35.45;;;16.52;;
60054;SDS011;45930;53.514;55.904;2023-02-28T02:46:45;35.83;;;16.48;;
60054;SDS011;45930;53.514;55.904;2023-02-28T02:47:47;30.45;;;17.00;;
60054;SDS011;45930;53.514;55.904;2023-02-28T02:48:49;33.72;;;18.05;;
60054;SDS011;45930;53.514;55.904;2023-02-28T02:49:55;31.70;;;16.40;;
60054;SDS011;45930;53.514;55.904;2023-02-28T02:51:01;30.67;;;17.27;;
60054;SDS011;45930;53.514;55.904;2023-02-28T02:52:12;31.45;;;17.08;;
60054;SDS011;45930;53.514;55.904;2023-02-28T02:53:17;33.83;;;16.88;;
60054;SDS011;45930;53.514;55.904;2023-02-28T02:54:26;29.38;;;16.35;;
60054;SDS011;45930;53.514;55.904;2023-02-28T02:55:29;31.45;;;17.30;;
60054;SDS011;45930;53.514;55.904;2023-02-28T02:56:33;35.72;;;17.45;;
60054;SDS011;45930;53.514;55.904;2023-02-28T02:58:10;31.40;;;17.70;;
60054;SDS011;45930;53.514;55.904;2023-02-28T02:59:06;26.63;;;15.90;;
60054;SDS011;45930;53.514;55.904;2023-02-28T03:00:09;34.80;;;17.48;;
60054;SDS011;45930;53.514;55.904;2023-02-28T03:01:14;32.58;;;17.45;;
60054;SDS011;45930;53.514;55.904;2023-02-28T03:02:27;34.90;;;17.25;;
60054;SDS011;45930;53.514;55.904;2023-02-28T03:03:34;39.55;;;18.58;;
60054;SDS011;45930;53.514;55.904;2023-02-28T03:04:40;32.65;;;18.08;;
60054;SDS011;45930;53.514;55.904;2023-02-28T03:05:50;33.88;;;17.40;;
60054;SDS011;45930;53.514;55.904;2023-02-28T03:06:51;31.23;;;16.58;;
60054;SDS011;45930;53.514;55.904;2023-02-28T03:07:55;37.70;;;17.55;;
60054;SDS011;45930;53.514;55.904;2023-02-28T03:08:56;36.10;;;17.30;;
60054;SDS011;45930;53.514;55.904;2023-02-28T03:09:57;37.53;;;18.52;;
60054;SDS011;45930;53.514;55.904;2023-02-28T03:10:59;34.13;;;18.70;;
60054;SDS011;45930;53.514;55.904;2023-02-28T03:12:01;33.15;;;16.30;;
60054;SDS011;45930;53.514;55.904;2023-02-28T03:13:08;33.17;;;17.00;;
60054;SDS011;45930;53.514;55.904;2023-02-28T03:16:03;29.55;;;15.93;;
60054;SDS011;45930;53.514;55.904;2023-02-28T03:18:38;31.88;;;17.27;;
60054;SDS011;45930;53.514;55.904;2023-02-28T03:21:11;35.28;;;18.02;;
60054;SDS011;45930;53.514;55.904;2023-02-28T03:22:35;33.17;;;16.10;;
60054;SDS011;45930;53.514;55.904;2023-02-28T03:23:42;32.25;;;17.10;;
60054;SDS011;45930;53.514;55.904;2023-02-28T03:26:09;34.58;;;17.42;;
60054;SDS011;45930;53.514;55.904;2023-02-28T03:27:39;37.95;;;18.88;;
60054;SDS011;45930;53.514;55.904;2023-02-28T03:31:53;42.38;;;19.60;;
60054;SDS011;45930;53.514;55.904;2023-02-28T03:33:10;38.05;;;18.85;;
60054;SDS011;45930;53.514;55.904;2023-02-28T03:34:19;38.60;;;18.23;;
60054;SDS011;45930;53.514;55.904;2023-02-28T03:35:28;36.17;;;19.85;;
60054;SDS011;45930;53.514;55.904;2023-02-28T03:36:34;45.90;;;20.80;;
60054;SDS011;45930;53.514;55.904;2023-02-28T03:37:44;39.70;;;18.90;;
60054;SDS011;45930;53.514;55.904;2023-02-28T03:39:09;39.80;;;20.25;;
60054;SDS011;45930;53.514;55.904;2023-02-28T03:40:19;42.17;;;21.83;;
60054;SDS011;45930;53.514;55.904;2023-02-28T03:41:24;36.30;;;17.90;;
60054;SDS011;45930;53.514;55.904;2023-02-28T03:42:31;37.97;;;18.95;;
60054;SDS011;45930;53.514;55.904;2023-02-28T03:43:37;41.08;;;20.60;;
60054;SDS011;45930;53.514;55.904;2023-02-28T03:44:42;41.80;;;20.35;;
60054;SDS011;45930;53.514;55.904;2023-02-28T03:45:46;35.60;;;17.50;;
60054;SDS011;45930;53.514;55.904;2023-02-28T03:47:10;35.92;;;16.75;;
60054;SDS011;45930;53.514;55.904;2023-02-28T03:48:25;38.22;;;18.02;;
60054;SDS011;45930;53.514;55.904;2023-02-28T03:49:37;37.65;;;19.17;;
60054;SDS011;45930;53.514;55.904;2023-02-28T03:50:44;38.80;;;19.10;;
60054;SDS011;45930;53.514;55.904;2023-02-28T03:51:48;42.40;;;20.45;;
60054;SDS011;45930;53.514;55.904;2023-02-28T03:54:22;46.13;;;19.63;;
60054;SDS011;45930;53.514;55.904;2023-02-28T03:55:28;40.10;;;19.35;;
60054;SDS011;45930;53.514;55.904;2023-02-28T03:56:37;34.35;;;17.95;;
60054;SDS011;45930;53.514;55.904;2023-02-28T03:57:56;33.95;;;17.42;;
60054;SDS011;45930;53.514;55.904;2023-02-28T03:59:06;37.30;;;18.08;;
60054;SDS011;45930;53.514;55.904;2023-02-28T04:00:39;31.27;;;16.65;;
60054;SDS011;45930;53.514;55.904;2023-02-28T04:01:45;29.48;;;15.90;;
60054;SDS011;45930;53.514;55.904;2023-02-28T04:02:48;34.45;;;16.30;;
60054;SDS011;45930;53.514;55.904;2023-02-28T04:03:53;30.52;;;15.30;;
60054;SDS011;45930;53.514;55.904;2023-02-28T04:04:53;27.13;;;15.07;;
60054;SDS011;45930;53.514;55.904;2023-02-28T04:05:54;30.48;;;14.50;;
60054;SDS011;45930;53.514;55.904;2023-02-28T04:07:16;32.97;;;17.13;;
60054;SDS011;45930;53.514;55.904;2023-02-28T04:08:17;24.15;;;14.85;;
60054;SDS011;45930;53.514;55.904;2023-02-28T04:09:18;21.88;;;11.98;;
60054;SDS011;45930;53.514;55.904;2023-02-28T04:10:19;24.58;;;12.57;;
60054;SDS011;45930;53.514;55.904;2023-02-28T04:12:35;18.90;;;10.38;;
60054;SDS011;45930;53.514;55.904;2023-02-28T04:13:36;21.92;;;13.27;;
60054;SDS011;45930;53.514;55.904;2023-02-28T04:14:36;28.23;;;13.93;;
60054;SDS011;45930;53.514;55.904;2023-02-28T04:15:37;23.70;;;13.30;;
60054;SDS011;45930;53.514;55.904;2023-02-28T04:16:39;24.42;;;13.85;;
60054;SDS011;45930;53.514;55.904;2023-02-28T04:17:41;24.70;;;13.18;;
60054;SDS011;45930;53.514;55.904;2023-02-28T04:18:42;20.85;;;12.95;;
60054;SDS011;45930;53.514;55.904;2023-02-28T04:19:46;24.17;;;13.30;;
60054;SDS011;45930;53.514;55.904;2023-02-28T04:20:46;25.05;;;12.57;;
60054;SDS011;45930;53.514;55.904;2023-02-28T04:21:48;22.52;;;12.57;;
60054;SDS011;45930;53.514;55.904;2023-02-28T04:22:53;21.33;;;13.50;;
60054;SDS011;45930;53.514;55.904;2023-02-28T04:23:54;25.38;;;13.00;;
60054;SDS011;45930;53.514;55.904;2023-02-28T04:24:55;22.73;;;13.18;;
60054;SDS011;45930;53.514;55.904;2023-02-28T04:25:56;19.35;;;11.05;;
60054;SDS011;45930;53.514;55.904;2023-02-28T04:26:57;26.65;;;13.32;;
60054;SDS011;45930;53.514;55.904;2023-02-28T04:27:58;20.58;;;11.27;;
60054;SDS011;45930;53.514;55.904;2023-02-28T04:28:59;23.08;;;10.95;;
60054;SDS011;45930;53.514;55.904;2023-02-28T04:30:01;19.73;;;10.82;;
60054;SDS011;45930;53.514;55.904;2023-02-28T04:31:04;20.75;;;9.52;;
60054;SDS011;45930;53.514;55.904;2023-02-28T04:32:06;21.50;;;11.93;;
60054;SDS011;45930;53.514;55.904;2023-02-28T04:33:06;20.20;;;10.52;;
60054;SDS011;45930;53.514;55.904;2023-02-28T04:34:07;19.85;;;11.95;;
60054;SDS011;45930;53.514;55.904;2023-02-28T04:35:08;24.15;;;13.10;;
60054;SDS011;45930;53.514;55.904;2023-02-28T04:36:09;23.10;;;11.35;;
60054;SDS011;45930;53.514;55.904;2023-02-28T04:37:10;27.30;;;12.95;;
60054;SDS011;45930;53.514;55.904;2023-02-28T04:38:10;26.35;;;14.02;;
60054;SDS011;45930;53.514;55.904;2023-02-28T04:39:11;25.38;;;13.88;;
60054;SDS011;45930;53.514;55.904;2023-02-28T04:40:12;22.52;;;12.60;;
60054;SDS011;45930;53.514;55.904;2023-02-28T04:41:13;21.98;;;11.65;;
60054;SDS011;45930;53.514;55.904;2023-02-28T04:42:14;21.25;;;13.38;;
60054;SDS011;45930;53.514;55.904;2023-02-28T04:43:15;18.27;;;11.52;;
60054;SDS011;45930;53.514;55.904;2023-02-28T04:44:16;26.45;;;13.88;;
60054;SDS011;45930;53.514;55.904;2023-02-28T04:45:17;23.38;;;13.70;;
60054;SDS011;45930;53.514;55.904;2023-02-28T04:46:18;21.27;;;12.13;;
60054;SDS011;45930;53.514;55.904;2023-02-28T04:47:20;20.52;;;10.52;;
60054;SDS011;45930;53.514;55.904;2023-02-28T04:48:21;21.50;;;12.68;;
60054;SDS011;45930;53.514;55.904;2023-02-28T04:49:21;21.67;;;11.73;;
60054;SDS011;45930;53.514;55.904;2023-02-28T04:50:22;21.92;;;11.57;;
60054;SDS011;45930;53.514;55.904;2023-02-28T04:51:23;19.85;;;10.85;;
60054;SDS011;45930;53.514;55.904;2023-02-28T04:52:24;14.32;;;10.23;;
60054;SDS011;45930;53.514;55.904;2023-02-28T04:53:24;21.77;;;11.65;;
60054;SDS011;45930;53.514;55.904;2023-02-28T04:54:25;18.38;;;10.25;;
60054;SDS011;45930;53.514;55.904;2023-02-28T04:55:26;18.45;;;10.88;;
60054;SDS011;45930;53.514;55.904;2023-02-28T04:56:27;21.55;;;13.45;;
60054;SDS011;45930;53.514;55.904;2023-02-28T04:57:28;19.67;;;11.23;;
60054;SDS011;45930;53.514;55.904;2023-02-28T04:58:28;20.55;;;12.05;;
60054;SDS011;45930;53.514;55.904;2023-02-28T04:59:30;20.50;;;11.68;;
60054;SDS011;45930;53.514;55.904;2023-02-28T05:00:30;20.23;;;10.73;;
60054;SDS011;45930;53.514;55.904;2023-02-28T05:01:32;17.50;;;9.18;;
60054;SDS011;45930;53.514;55.904;2023-02-28T05:02:35;15.98;;;9.10;;
60054;SDS011;45930;53.514;55.904;2023-02-28T05:03:35;17.08;;;10.05;;
60054;SDS011;45930;53.514;55.904;2023-02-28T05:04:36;13.63;;;9.13;;
60054;SDS011;45930;53.514;55.904;2023-02-28T05:05:37;22.75;;;10.82;;
60054;SDS011;45930;53.514;55.904;2023-02-28T05:06:38;18.63;;;9.95;;
60054;SDS011;45930;53.514;55.904;2023-02-28T05:07:39;17.25;;;9.68;;
60054;SDS011;45930;53.514;55.904;2023-02-28T05:08:39;15.32;;;8.70;;
60054;SDS011;45930;53.514;55.904;2023-02-28T05:09:41;14.52;;;8.90;;
60054;SDS011;45930;53.514;55.904;2023-02-28T05:10:42;11.50;;;7.55;;
60054;SDS011;45930;53.514;55.904;2023-02-28T05:11:43;13.95;;;8.00;;
60054;SDS011;45930;53.514;55.904;2023-02-28T05:12:45;12.75;;;6.55;;
60054;SDS011;45930;53.514;55.904;2023-02-28T05:13:45;9.43;;;5.63;;
60054;SDS011;45930;53.514;55.904;2023-02-28T05:14:46;13.80;;;7.22;;
60054;SDS011;45930;53.514;55.904;2023-02-28T05:15:47;11.93;;;6.78;;
60054;SDS011;45930;53.514;55.904;2023-02-28T05:16:48;11.35;;;6.00;;
60054;SDS011;45930;53.514;55.904;2023-02-28T05:17:49;9.38;;;5.78;;
60054;SDS011;45930;53.514;55.904;2023-02-28T05:18:49;8.52;;;5.32;;
60054;SDS011;45930;53.514;55.904;2023-02-28T05:19:50;8.60;;;4.90;;
60054;SDS011;45930;53.514;55.904;2023-02-28T05:20:51;10.10;;;5.10;;
60054;SDS011;45930;53.514;55.904;2023-02-28T05:21:52;8.48;;;5.93;;
60054;SDS011;45930;53.514;55.904;2023-02-28T05:22:55;9.85;;;6.28;;
60054;SDS011;45930;53.514;55.904;2023-02-28T05:23:59;8.82;;;5.43;;
60054;SDS011;45930;53.514;55.904;2023-02-28T05:25:01;6.70;;;4.55;;
60054;SDS011;45930;53.514;55.904;2023-02-28T05:26:04;9.75;;;6.07;;
60054;SDS011;45930;53.514;55.904;2023-02-28T05:27:04;6.53;;;4.97;;
60054;SDS011;45930;53.514;55.904;2023-02-28T05:28:05;9.13;;;5.85;;
60054;SDS011;45930;53.514;55.904;2023-02-28T05:29:07;9.55;;;5.43;;
60054;SDS011;45930;53.514;55.904;2023-02-28T05:30:08;6.75;;;4.63;;
60054;SDS011;45930;53.514;55.904;2023-02-28T05:31:13;8.98;;;5.53;;
60054;SDS011;45930;53.514;55.904;2023-02-28T05:32:14;8.77;;;5.22;;
60054;SDS011;45930;53.514;55.904;2023-02-28T05:33:15;13.18;;;6.60;;
60054;SDS011;45930;53.514;55.904;2023-02-28T05:34:16;7.90;;;5.00;;
60054;SDS011;45930;53.514;55.904;2023-02-28T05:35:17;7.68;;;4.00;;
60054;SDS011;45930;53.514;55.904;2023-02-28T05:36:18;8.80;;;5.15;;
60054;SDS011;45930;53.514;55.904;2023-02-28T05:37:20;9.32;;;5.25;;
60054;SDS011;45930;53.514;55.904;2023-02-28T05:38:21;7.90;;;5.05;;
60054;SDS011;45930;53.514;55.904;2023-02-28T05:39:21;8.20;;;5.90;;
60054;SDS011;45930;53.514;55.904;2023-02-28T05:40:22;11.38;;;5.05;;
60054;SDS011;45930;53.514;55.904;2023-02-28T05:41:23;7.22;;;4.50;;
60054;SDS011;45930;53.514;55.904;2023-02-28T05:42:24;7.22;;;4.25;;
60054;SDS011;45930;53.514;55.904;2023-02-28T05:43:25;6.53;;;4.30;;
60054;SDS011;45930;53.514;55.904;2023-02-28T05:44:25;6.47;;;4.22;;
60054;SDS011;45930;53.514;55.904;2023-02-28T05:45:26;6.55;;;4.50;;
60054;SDS011;45930;53.514;55.904;2023-02-28T05:46:27;8.68;;;5.18;;
60054;SDS011;45930;53.514;55.904;2023-02-28T05:47:28;9.40;;;5.68;;
60054;SDS011;45930;53.514;55.904;2023-02-28T05:48:29;8.82;;;5.20;;
60054;SDS011;45930;53.514;55.904;2023-02-28T05:49:29;7.40;;;5.18;;
60054;SDS011;45930;53.514;55.904;2023-02-28T05:50:30;5.90;;;4.03;;
60054;SDS011;45930;53.514;55.904;2023-02-28T05:51:31;5.47;;;3.63;;
60054;SDS011;45930;53.514;55.904;2023-02-28T05:52:32;5.57;;;3.70;;
60054;SDS011;45930;53.514;55.904;2023-02-28T05:53:32;6.47;;;4.30;;
60054;SDS011;45930;53.514;55.904;2023-02-28T05:54:33;6.78;;;4.57;;
60054;SDS011;45930;53.514;55.904;2023-02-28T05:55:34;6.25;;;4.32;;
60054;SDS011;45930;53.514;55.904;2023-02-28T05:56:36;5.80;;;3.88;;
60054;SDS011;45930;53.514;55.904;2023-02-28T05:57:40;6.60;;;4.50;;
60054;SDS011;45930;53.514;55.904;2023-02-28T05:58:40;6.75;;;4.32;;
60054;SDS011;45930;53.514;55.904;2023-02-28T05:59:41;7.82;;;4.78;;
60054;SDS011;45930;53.514;55.904;2023-02-28T06:00:44;7.68;;;4.95;;
60054;SDS011;45930;53.514;55.904;2023-02-28T06:01:46;8.48;;;5.53;;
60054;SDS011;45930;53.514;55.904;2023-02-28T06:02:49;7.38;;;4.50;;
60054;SDS011;45930;53.514;55.904;2023-02-28T06:03:51;6.10;;;3.92;;
60054;SDS011;45930;53.514;55.904;2023-02-28T06:04:52;8.00;;;4.70;;
60054;SDS011;45930;53.514;55.904;2023-02-28T06:05:53;5.90;;;4.15;;
60054;SDS011;45930;53.514;55.904;2023-02-28T06:06:54;7.05;;;4.70;;
60054;SDS011;45930;53.514;55.904;2023-02-28T06:07:57;7.30;;;5.03;;
60054;SDS011;45930;53.514;55.904;2023-02-28T06:08:58;7.57;;;5.00;;
60054;SDS011;45930;53.514;55.904;2023-02-28T06:09:59;9.55;;;5.70;;
60054;SDS011;45930;53.514;55.904;2023-02-28T06:11:02;7.63;;;5.07;;
60054;SDS011;45930;53.514;55.904;2023-02-28T06:12:04;9.85;;;6.43;;
60054;SDS011;45930;53.514;55.904;2023-02-28T06:13:07;9.93;;;6.32;;
60054;SDS011;45930;53.514;55.904;2023-02-28T06:14:09;9.25;;;5.80;;
60054;SDS011;45930;53.514;55.904;2023-02-28T06:15:15;8.88;;;5.53;;
60054;SDS011;45930;53.514;55.904;2023-02-28T06:16:16;6.95;;;4.65;;
60054;SDS011;45930;53.514;55.904;2023-02-28T06:17:17;8.48;;;6.38;;
60054;SDS011;45930;53.514;55.904;2023-02-28T06:18:18;7.35;;;4.85;;
60054;SDS011;45930;53.514;55.904;2023-02-28T06:19:19;8.88;;;6.03;;
60054;SDS011;45930;53.514;55.904;2023-02-28T06:20:20;8.57;;;4.97;;
60054;SDS011;45930;53.514;55.904;2023-02-28T06:21:20;8.25;;;5.50;;
60054;SDS011;45930;53.514;55.904;2023-02-28T06:22:21;6.30;;;4.65;;
60054;SDS011;45930;53.514;55.904;2023-02-28T06:23:22;10.50;;;5.68;;
60054;SDS011;45930;53.514;55.904;2023-02-28T06:24:23;8.32;;;5.13;;
60054;SDS011;45930;53.514;55.904;2023-02-28T06:25:26;9.65;;;5.65;;
60054;SDS011;45930;53.514;55.904;2023-02-28T06:26:27;8.13;;;5.65;;
60054;SDS011;45930;53.514;55.904;2023-02-28T06:27:28;9.63;;;5.68;;
60054;SDS011;45930;53.514;55.904;2023-02-28T06:28:30;7.68;;;4.80;;
60054;SDS011;45930;53.514;55.904;2023-02-28T06:29:32;8.88;;;5.60;;
60054;SDS011;45930;53.514;55.904;2023-02-28T06:30:33;8.05;;;5.10;;
60054;SDS011;45930;53.514;55.904;2023-02-28T06:31:34;7.00;;;5.07;;
60054;SDS011;45930;53.514;55.904;2023-02-28T06:32:37;6.63;;;4.55;;
60054;SDS011;45930;53.514;55.904;2023-02-28T06:33:38;8.32;;;5.28;;
60054;SDS011;45930;53.514;55.904;2023-02-28T06:34:39;7.32;;;5.13;;
60054;SDS011;45930;53.514;55.904;2023-02-28T06:35:43;8.32;;;5.00;;
60054;SDS011;45930;53.514;55.904;2023-02-28T06:36:45;6.88;;;5.38;;
60054;SDS011;45930;53.514;55.904;2023-02-28T06:37:45;7.10;;;5.13;;
60054;SDS011;45930;53.514;55.904;2023-02-28T06:38:47;7.57;;;5.15;;
60054;SDS011;45930;53.514;55.904;2023-02-28T06:39:52;7.43;;;5.20;;
60054;SDS011;45930;53.514;55.904;2023-02-28T06:40:54;8.23;;;5.28;;
60054;SDS011;45930;53.514;55.904;2023-02-28T06:41:56;8.10;;;5.80;;
60054;SDS011;45930;53.514;55.904;2023-02-28T06:42:56;7.85;;;4.85;;
60054;SDS011;45930;53.514;55.904;2023-02-28T06:43:57;6.72;;;4.85;;
60054;SDS011;45930;53.514;55.904;2023-02-28T06:44:58;7.38;;;4.57;;
60054;SDS011;45930;53.514;55.904;2023-02-28T06:46:00;6.38;;;5.25;;
60054;SDS011;45930;53.514;55.904;2023-02-28T06:47:02;6.32;;;4.80;;